createdAt,value
2023-06-14T00:01:47.145Z,97786.84
2023-06-14T00:04:17.852Z,97779.28
2023-06-14T00:06:46.280Z,97783.13
2023-06-14T00:09:14.355Z,97802.75
2023-06-14T00:11:45.595Z,97795.75
2023-06-14T00:14:13.469Z,97792.81
2023-06-14T00:16:43.194Z,97795.84
2023-06-14T00:19:11.361Z,97820.81
2023-06-14T00:21:39.158Z,97829.66
2023-06-14T00:24:06.878Z,97839.13
2023-06-14T00:26:34.807Z,97857.63
2023-06-14T00:29:02.832Z,97866.88
2023-06-14T00:31:31.263Z,97887.66
2023-06-14T00:33:58.553Z,97889.09
2023-06-14T00:36:26.564Z,97892.78
2023-06-14T00:38:54.778Z,97893.28
2023-06-14T00:41:23.502Z,97870.03
2023-06-14T00:43:52.261Z,97862.56
2023-06-14T00:46:20.710Z,97884.59
2023-06-14T00:48:48.817Z,97888.53
2023-06-14T00:51:17.292Z,97900.09
2023-06-14T00:53:48.082Z,97921.19
2023-06-14T00:56:17.847Z,97920.38
2023-06-14T00:58:45.619Z,97915.88
2023-06-14T01:07:05.792Z,97946.41
2023-06-14T01:09:42.147Z,97969.41
2023-06-14T01:12:26.110Z,97967.91
2023-06-14T01:14:53.764Z,97962.69
2023-06-14T01:17:22.667Z,97957.53
2023-06-14T01:19:54.459Z,97963.84
2023-06-14T01:22:22.139Z,97973.00
2023-06-14T01:24:50.417Z,97957.69
2023-06-14T01:27:19.973Z,97970.22
2023-06-14T01:29:49.222Z,97985.81
2023-06-14T01:32:17.315Z,98010.53
2023-06-14T01:34:45.295Z,98034.09
2023-06-14T01:37:12.892Z,98051.25
2023-06-14T01:39:40.871Z,98076.63
2023-06-14T01:42:08.625Z,98089.72
2023-06-14T01:44:36.009Z,98087.47
2023-06-14T01:47:03.286Z,98100.72
2023-06-14T01:49:31.303Z,98094.13
2023-06-14T01:51:59.272Z,98084.81
2023-06-14T01:54:26.705Z,98079.50
2023-06-14T01:56:54.626Z,98087.97
2023-06-14T01:59:22.096Z,98073.13
2023-06-14T02:01:49.890Z,98079.19
2023-06-14T02:04:17.556Z,98080.22
2023-06-14T02:06:45.016Z,98094.50
2023-06-14T02:09:12.655Z,98104.19
2023-06-14T02:11:40.508Z,98108.59
2023-06-14T02:14:08.160Z,98098.03
2023-06-14T02:16:37.256Z,98092.22
2023-06-14T02:19:04.993Z,98102.69
2023-06-14T02:21:32.406Z,98105.50
2023-06-14T02:23:59.941Z,98117.75
2023-06-14T02:26:29.926Z,98124.53
2023-06-14T02:28:57.265Z,98127.66
2023-06-14T02:31:25.511Z,98142.66
2023-06-14T02:33:53.208Z,98170.84
2023-06-14T02:36:21.554Z,98183.72
2023-06-14T02:38:49.224Z,98197.16
2023-06-14T02:41:17.002Z,98206.19
2023-06-14T02:43:44.759Z,98218.44
2023-06-14T02:46:12.484Z,98234.81
2023-06-14T02:48:39.993Z,98246.34
2023-06-14T02:51:10.423Z,98244.72
2023-06-14T02:53:38.684Z,98246.50
2023-06-14T02:56:06.858Z,98236.66
2023-06-14T02:58:34.826Z,98227.38
2023-06-14T03:01:07.172Z,98235.94
2023-06-14T03:03:35.080Z,98236.72
2023-06-14T03:06:05.392Z,98234.00
2023-06-14T03:08:39.428Z,98250.19
2023-06-14T03:11:14.811Z,98265.59
2023-06-14T03:13:42.601Z,98271.69
2023-06-14T03:16:11.941Z,98292.75
2023-06-14T03:18:42.162Z,98306.06
2023-06-14T03:21:11.928Z,98301.75
2023-06-14T03:23:44.010Z,98298.94
2023-06-14T03:26:15.182Z,98300.00
2023-06-14T03:28:42.956Z,98309.28
2023-06-14T03:31:11.022Z,98314.00
2023-06-14T03:33:39.938Z,98311.66
2023-06-14T03:36:08.030Z,98305.41
2023-06-14T03:38:35.964Z,98304.00
2023-06-14T03:41:05.337Z,98327.88
2023-06-14T03:43:34.580Z,98352.53
2023-06-14T03:46:02.966Z,98344.22
2023-06-14T03:48:32.669Z,98349.63
2023-06-14T03:51:01.733Z,98352.53
2023-06-14T03:53:32.006Z,98353.25
2023-06-14T03:56:00.914Z,98367.13
2023-06-14T03:58:36.443Z,98376.66
2023-06-14T04:01:04.413Z,98363.16
2023-06-14T04:03:32.599Z,98354.22
2023-06-14T04:06:01.895Z,98353.50
2023-06-14T04:08:29.505Z,98355.81
2023-06-14T04:10:58.984Z,98363.94
2023-06-14T04:13:26.406Z,98385.47
2023-06-14T04:15:54.573Z,98399.66
2023-06-14T04:18:27.888Z,98417.44
2023-06-14T04:20:57.509Z,98435.19
2023-06-14T04:23:24.991Z,98440.94
2023-06-14T04:25:52.863Z,98454.31
2023-06-14T04:28:20.621Z,98457.16
2023-06-14T04:30:49.423Z,98423.31
2023-06-14T04:33:19.601Z,98427.78
2023-06-14T04:35:54.488Z,98420.13
2023-06-14T04:38:26.553Z,98427.94
2023-06-14T04:40:54.634Z,98421.03
2023-06-14T04:43:27.156Z,98416.47
2023-06-14T04:45:57.284Z,98433.69
2023-06-14T04:48:26.348Z,98427.03
2023-06-14T04:50:55.368Z,98438.22
2023-06-14T04:53:24.134Z,98456.31
2023-06-14T04:55:55.793Z,98444.06
2023-06-14T04:58:25.064Z,98459.78
2023-06-14T05:00:53.320Z,98468.84
2023-06-14T05:03:22.028Z,98458.47
2023-06-14T05:05:49.759Z,98451.88
2023-06-14T05:08:17.920Z,98468.25
2023-06-14T05:10:46.603Z,98463.97
2023-06-14T05:13:14.282Z,98453.63
2023-06-14T05:15:43.485Z,98467.88
2023-06-14T05:18:11.117Z,98466.81
2023-06-14T05:20:39.005Z,98470.41
2023-06-14T05:23:06.701Z,98473.84
2023-06-14T05:25:34.513Z,98473.22
2023-06-14T05:28:02.459Z,98467.75
2023-06-14T05:30:31.797Z,98470.75
2023-06-14T05:32:59.185Z,98471.25
2023-06-14T05:35:27.833Z,98482.31
2023-06-14T05:37:55.499Z,98488.03
2023-06-14T05:40:23.058Z,98495.31
2023-06-14T05:42:50.716Z,98497.41
2023-06-14T05:45:18.754Z,98495.16
2023-06-14T05:50:45.553Z,98516.97
2023-06-14T05:53:13.245Z,98523.56
2023-06-14T05:55:41.768Z,98510.03
2023-06-14T05:58:10.300Z,98516.66
2023-06-14T06:00:38.076Z,98519.47
2023-06-14T06:03:05.759Z,98517.13
2023-06-14T06:05:33.478Z,98530.41
2023-06-14T06:08:01.547Z,98529.00
2023-06-14T06:10:28.767Z,98526.72
2023-06-14T06:12:56.282Z,98531.28
2023-06-14T06:15:24.275Z,98539.53
2023-06-14T06:17:55.989Z,98537.88
2023-06-14T06:20:29.441Z,98528.63
2023-06-14T06:22:57.477Z,98536.06
2023-06-14T06:25:26.792Z,98541.81
2023-06-14T06:27:54.770Z,98544.13
2023-06-14T06:30:22.220Z,98550.53
2023-06-14T06:32:49.693Z,98552.56
2023-06-14T06:35:18.094Z,98559.88
2023-06-14T06:37:45.762Z,98570.66
2023-06-14T06:40:13.833Z,98561.34
2023-06-14T06:42:41.253Z,98578.94
2023-06-14T06:45:12.904Z,98583.97
2023-06-14T06:47:40.658Z,98590.13
2023-06-14T06:50:09.332Z,98597.31
2023-06-14T06:52:37.580Z,98589.03
2023-06-14T06:55:05.659Z,98585.63
2023-06-14T06:57:33.161Z,98580.06
2023-06-14T07:00:01.147Z,98580.31
2023-06-14T07:02:29.607Z,98587.41
2023-06-14T07:04:57.231Z,98591.41
2023-06-14T07:07:24.538Z,98576.31
2023-06-14T07:09:52.163Z,98582.75
2023-06-14T07:12:19.581Z,98568.53
2023-06-14T07:14:47.286Z,98573.56
2023-06-14T07:17:15.241Z,98545.34
2023-06-14T07:19:42.542Z,98570.25
2023-06-14T07:22:11.670Z,98562.44
2023-06-14T07:24:41.278Z,98580.50
2023-06-14T07:27:09.178Z,98575.63
2023-06-14T07:29:36.991Z,98584.66
2023-06-14T07:32:07.643Z,98574.13
2023-06-14T07:34:35.572Z,98573.53
2023-06-14T07:37:03.351Z,98591.75
2023-06-14T07:39:31.157Z,98583.50
2023-06-14T07:41:58.540Z,98574.81
2023-06-14T07:44:26.626Z,98574.44
2023-06-14T07:46:54.280Z,98579.72
2023-06-14T07:49:22.016Z,98586.16
2023-06-14T07:51:49.610Z,98602.44
2023-06-14T07:54:17.829Z,98585.72
2023-06-14T07:56:45.206Z,98604.94
2023-06-14T07:59:12.832Z,98599.47
2023-06-14T08:01:40.615Z,98617.88
2023-06-14T08:04:08.041Z,98609.28
2023-06-14T08:06:35.742Z,98608.09
2023-06-14T08:09:03.227Z,98607.06
2023-06-14T08:11:30.778Z,98606.00
2023-06-14T08:14:01.279Z,98616.38
2023-06-14T08:16:28.795Z,98613.09
2023-06-14T08:18:56.846Z,98615.28
2023-06-14T08:21:25.040Z,98613.69
2023-06-14T08:23:54.420Z,98621.34
2023-06-14T08:26:21.982Z,98609.81
2023-06-14T08:28:49.334Z,98612.25
2023-06-14T08:31:16.750Z,98609.59
2023-06-14T08:33:44.354Z,98615.63
2023-06-14T08:36:12.890Z,98609.59
2023-06-14T08:38:41.042Z,98610.97
2023-06-14T08:41:08.717Z,98605.25
2023-06-14T08:43:36.128Z,98611.25
2023-06-14T08:46:04.605Z,98624.06
2023-06-14T08:48:35.437Z,98616.38
2023-06-14T08:51:03.188Z,98635.50
2023-06-14T08:53:36.661Z,98616.31
2023-06-14T08:56:06.749Z,98620.63
2023-06-14T08:58:34.978Z,98628.53
2023-06-14T09:01:06.248Z,98638.28
2023-06-14T09:03:34.098Z,98639.00
2023-06-14T09:06:01.882Z,98635.91
2023-06-14T09:08:31.278Z,98639.16
2023-06-14T09:10:59.700Z,98636.91
2023-06-14T09:13:30.700Z,98629.28
2023-06-14T09:15:59.341Z,98621.44
2023-06-14T09:18:39.909Z,98623.38
2023-06-14T09:21:09.317Z,98626.84
2023-06-14T09:23:43.071Z,98622.63
2023-06-14T09:26:17.425Z,98617.53
2023-06-14T09:28:45.904Z,98619.66
2023-06-14T09:31:14.371Z,98610.34
2023-06-14T09:33:51.534Z,98614.47
2023-06-14T09:36:19.595Z,98622.16
2023-06-14T09:39:01.456Z,98622.97
2023-06-14T09:41:36.544Z,98622.72
2023-06-14T09:44:08.829Z,98618.09
2023-06-14T09:46:38.178Z,98613.44
2023-06-14T09:49:06.964Z,98616.91
2023-06-14T09:51:35.410Z,98617.72
2023-06-14T09:54:05.498Z,98616.91
2023-06-14T09:56:34.580Z,98625.44
2023-06-14T09:59:08.044Z,98613.16
2023-06-14T10:01:42.831Z,98624.91
2023-06-14T10:04:12.195Z,98629.28
2023-06-14T10:06:44.841Z,98609.31
2023-06-14T10:09:12.783Z,98618.53
2023-06-14T10:11:46.820Z,98625.34
2023-06-14T10:14:16.971Z,98614.91
2023-06-14T10:17:10.155Z,98619.22
2023-06-14T10:19:44.108Z,98620.94
2023-06-14T10:22:13.801Z,98622.91
2023-06-14T10:24:45.305Z,98632.78
2023-06-14T10:27:18.094Z,98621.56
2023-06-14T10:29:55.036Z,98631.97
2023-06-14T10:32:23.141Z,98640.22
2023-06-14T10:34:58.105Z,98649.22
2023-06-14T10:37:25.870Z,98651.69
2023-06-14T10:39:54.287Z,98669.13
2023-06-14T10:42:24.426Z,98680.53
2023-06-14T10:45:06.142Z,98687.38
2023-06-14T10:47:36.869Z,98684.63
2023-06-14T10:50:06.560Z,98689.22
2023-06-14T10:52:36.798Z,98701.84
2023-06-14T10:55:23.976Z,98697.09
2023-06-14T10:57:59.619Z,98699.69
2023-06-14T11:00:29.291Z,98708.13
2023-06-14T11:03:01.333Z,98704.88
2023-06-14T11:05:31.992Z,98710.25
2023-06-14T11:08:22.043Z,98699.06
2023-06-14T11:10:49.494Z,98703.25
2023-06-14T11:13:17.450Z,98715.34
2023-06-14T11:15:48.221Z,98717.50
2023-06-14T11:18:17.747Z,98701.59
2023-06-14T11:20:47.078Z,98702.16
2023-06-14T11:23:14.555Z,98703.03
2023-06-14T11:25:41.781Z,98698.94
2023-06-14T11:28:10.672Z,98696.81
2023-06-14T11:30:38.798Z,98692.13
2023-06-14T11:33:10.515Z,98683.63
2023-06-14T11:35:39.416Z,98695.25
2023-06-14T11:38:08.700Z,98710.25
2023-06-14T11:40:36.279Z,98710.78
2023-06-14T11:43:03.517Z,98698.28
2023-06-14T11:45:31.665Z,98703.19
2023-06-14T11:48:02.410Z,98701.69
2023-06-14T11:50:31.242Z,98706.28
2023-06-14T11:53:11.492Z,98706.97
2023-06-14T11:55:40.198Z,98707.91
2023-06-14T11:58:08.699Z,98703.91
2023-06-14T12:00:37.738Z,98703.00
2023-06-14T12:03:05.638Z,98696.22
2023-06-14T12:05:35.314Z,98722.66
2023-06-14T12:08:04.441Z,98712.13
2023-06-14T12:10:31.889Z,98712.53
2023-06-14T12:13:00.145Z,98720.34
2023-06-14T12:15:31.407Z,98705.44
2023-06-14T12:18:02.279Z,98724.72
2023-06-14T12:20:32.802Z,98729.91
2023-06-14T12:23:01.932Z,98727.19
2023-06-14T12:25:34.459Z,98736.16
2023-06-14T12:28:09.466Z,98736.31
2023-06-14T12:30:37.648Z,98730.25
2023-06-14T12:33:05.774Z,98736.31
2023-06-14T12:35:33.552Z,98733.84
2023-06-14T12:38:01.493Z,98739.78
2023-06-14T12:40:29.526Z,98735.56
2023-06-14T12:42:57.190Z,98743.13
2023-06-14T12:45:25.077Z,98745.78
2023-06-14T12:47:53.106Z,98743.56
2023-06-14T12:50:24.615Z,98754.25
2023-06-14T12:52:53.795Z,98758.94
2023-06-14T12:55:21.827Z,98771.88
2023-06-14T12:57:51.227Z,98780.22
2023-06-14T13:00:19.380Z,98792.66
2023-06-14T13:02:47.959Z,98798.91
2023-06-14T13:05:15.837Z,98795.09
2023-06-14T13:07:43.793Z,98813.38
2023-06-14T13:10:11.931Z,98818.03
2023-06-14T13:12:39.498Z,98804.81
2023-06-14T13:15:08.902Z,98801.19
2023-06-14T13:17:39.442Z,98802.53
2023-06-14T13:20:08.036Z,98804.47
2023-06-14T13:22:35.816Z,98793.84
2023-06-14T13:28:33.737Z,98791.53
2023-06-14T13:31:01.994Z,98775.38
2023-06-14T13:33:29.579Z,98784.22
2023-06-14T13:35:57.837Z,98799.78
2023-06-14T13:38:25.620Z,98796.31
2023-06-14T13:40:53.365Z,98783.41
2023-06-14T13:43:20.761Z,98782.13
2023-06-14T13:54:25.517Z,98786.16
2023-06-14T13:56:53.181Z,98801.84
2023-06-14T13:59:20.728Z,98803.97
2023-06-14T14:01:49.487Z,98804.94
2023-06-14T14:04:18.325Z,98805.63
2023-06-14T14:06:49.268Z,98798.09
2023-06-14T14:09:17.365Z,98799.72
2023-06-14T14:11:45.032Z,98793.72
2023-06-14T14:14:12.820Z,98797.03
2023-06-14T14:16:40.906Z,98806.31
2023-06-14T14:19:08.587Z,98816.66
2023-06-14T14:21:37.934Z,98826.19
2023-06-14T14:24:05.945Z,98817.81
2023-06-14T14:26:33.380Z,98808.00
2023-06-14T14:29:02.213Z,98827.06
2023-06-14T14:31:29.776Z,98809.72
2023-06-14T14:33:57.606Z,98812.16
2023-06-14T14:36:24.871Z,98820.13
2023-06-14T14:38:56.388Z,98828.94
2023-06-14T14:41:26.212Z,98829.94
2023-06-14T14:43:54.979Z,98840.22
2023-06-14T14:46:26.864Z,98827.44
2023-06-14T14:48:55.663Z,98839.69
2023-06-14T14:51:23.102Z,98845.41
2023-06-14T14:53:51.666Z,98846.75
2023-06-14T14:56:20.229Z,98840.84
2023-06-14T14:58:47.907Z,98840.03
2023-06-14T15:01:17.207Z,98845.56
2023-06-14T15:03:58.618Z,98853.00
2023-06-14T15:06:27.492Z,98849.78
2023-06-14T15:08:55.049Z,98844.13
2023-06-14T15:11:22.699Z,98842.75
2023-06-14T15:13:54.541Z,98836.09
2023-06-14T15:16:22.375Z,98842.25
2023-06-14T15:18:49.954Z,98844.88
2023-06-14T15:21:22.085Z,98838.88
2023-06-14T15:23:51.003Z,98832.56
2023-06-14T15:26:18.379Z,98833.22
2023-06-14T15:28:45.816Z,98840.75
2023-06-14T15:31:13.686Z,98834.88
2023-06-14T15:33:42.115Z,98836.41
2023-06-14T15:36:11.666Z,98843.06
2023-06-14T15:38:39.199Z,98829.88
2023-06-14T15:41:07.714Z,98831.13
2023-06-14T15:43:35.626Z,98823.78
2023-06-14T15:46:02.914Z,98819.03
2023-06-14T15:48:32.372Z,98823.84
2023-06-14T15:51:05.762Z,98816.28
2023-06-14T15:53:37.903Z,98816.78
2023-06-14T15:56:05.985Z,98838.78
2023-06-14T15:58:33.928Z,98833.00
2023-06-14T16:01:01.634Z,98826.03
2023-06-14T16:03:29.427Z,98825.81
2023-06-14T16:05:57.735Z,98813.78
2023-06-14T16:08:39.653Z,98812.44
2023-06-14T16:11:09.038Z,98822.94
2023-06-14T16:13:36.632Z,98820.88
2023-06-14T16:16:04.692Z,98815.69
2023-06-14T16:18:42.346Z,98820.25
2023-06-14T16:21:11.868Z,98810.06
2023-06-14T16:23:44.728Z,98817.53
2023-06-14T16:26:13.616Z,98816.13
2023-06-14T16:28:45.573Z,98817.47
2023-06-14T16:31:17.234Z,98806.19
2023-06-14T16:33:45.092Z,98815.41
2023-06-14T16:36:13.637Z,98805.97
2023-06-14T16:38:41.359Z,98805.97
2023-06-14T16:41:09.035Z,98806.19
2023-06-14T16:43:36.989Z,98801.50
2023-06-14T16:46:04.487Z,98816.66
2023-06-14T16:48:32.078Z,98808.22
2023-06-14T16:50:59.480Z,98806.41
2023-06-14T16:53:27.820Z,98808.56
2023-06-14T16:55:55.674Z,98809.59
2023-06-14T16:58:23.327Z,98806.97
2023-06-14T17:00:51.807Z,98802.00
2023-06-14T17:03:19.668Z,98806.22
2023-06-14T17:05:59.716Z,98804.22
2023-06-14T17:08:27.634Z,98793.84
2023-06-14T17:10:56.148Z,98794.94
2023-06-14T17:13:23.882Z,98805.56
2023-06-14T17:15:51.358Z,98797.50
2023-06-14T17:18:19.175Z,98798.41
2023-06-14T17:20:47.179Z,98799.72
2023-06-14T17:23:14.766Z,98800.72
2023-06-14T17:25:42.194Z,98794.78
2023-06-14T17:28:09.813Z,98797.69
2023-06-14T17:30:37.608Z,98800.41
2023-06-14T17:33:14.953Z,98791.53
2023-06-14T17:35:43.554Z,98791.69
2023-06-14T17:38:12.577Z,98793.75
2023-06-14T17:40:49.890Z,98780.44
2023-06-14T17:43:19.592Z,98788.94
2023-06-14T17:45:48.085Z,98788.28
2023-06-14T17:48:15.640Z,98785.88
2023-06-14T17:50:43.401Z,98782.56
2023-06-14T17:53:10.763Z,98782.56
2023-06-14T17:55:38.775Z,98786.34
2023-06-14T17:58:06.851Z,98780.41
2023-06-14T18:00:34.913Z,98770.91
2023-06-14T18:03:03.489Z,98793.06
2023-06-14T18:05:31.234Z,98774.66
2023-06-14T18:08:00.084Z,98783.34
2023-06-14T18:10:27.735Z,98790.44
2023-06-14T18:12:56.217Z,98792.69
2023-06-14T18:15:23.711Z,98785.91
2023-06-14T18:17:52.150Z,98780.94
2023-06-14T18:20:20.231Z,98793.34
2023-06-14T18:22:48.919Z,98783.41
2023-06-14T18:25:19.556Z,98784.88
2023-06-14T18:27:47.263Z,98780.50
2023-06-14T18:30:15.885Z,98786.13
2023-06-14T18:32:47.542Z,98783.63
2023-06-14T18:35:16.793Z,98780.31
2023-06-14T18:37:45.627Z,98783.44
2023-06-14T18:40:14.248Z,98778.69
2023-06-14T18:42:42.920Z,98785.69
2023-06-14T18:45:10.842Z,98772.88
2023-06-14T18:47:38.757Z,98785.69
2023-06-14T18:50:07.148Z,98781.97
2023-06-14T18:52:35.210Z,98784.09
2023-06-14T18:55:05.714Z,98779.31
2023-06-14T18:57:34.044Z,98772.50
2023-06-14T19:00:02.091Z,98775.56
2023-06-14T19:02:31.306Z,98774.56
2023-06-14T19:04:59.917Z,98787.81
2023-06-14T19:07:27.277Z,98797.53
2023-06-14T19:09:54.855Z,98788.84
2023-06-14T19:12:22.302Z,98785.75
2023-06-14T19:14:49.511Z,98784.94
2023-06-14T19:17:17.835Z,98785.97
2023-06-14T19:19:46.183Z,98786.56
2023-06-14T19:22:14.723Z,98769.00
2023-06-14T19:24:42.293Z,98789.91
2023-06-14T19:27:09.457Z,98781.00
2023-06-14T19:29:37.155Z,98779.13
2023-06-14T19:32:05.835Z,98775.81
2023-06-14T19:34:33.406Z,98793.22
2023-06-14T19:37:01.094Z,98787.63
2023-06-14T19:39:28.641Z,98776.25
2023-06-14T19:41:56.445Z,98775.03
2023-06-14T19:44:23.664Z,98777.50
2023-06-14T19:46:51.310Z,98782.47
2023-06-14T19:49:19.221Z,98771.28
2023-06-14T19:51:46.451Z,98772.09
2023-06-14T19:54:14.012Z,98772.94
2023-06-14T19:56:41.596Z,98784.50
2023-06-14T19:59:09.103Z,98779.31
2023-06-14T20:01:36.469Z,98772.91
2023-06-14T20:04:04.432Z,98771.66
2023-06-14T20:06:32.114Z,98772.50
2023-06-14T20:08:59.985Z,98784.13
2023-06-14T20:11:28.409Z,98767.09
2023-06-14T20:13:56.035Z,98763.78
2023-06-14T20:16:24.101Z,98778.75
2023-06-14T20:18:52.086Z,98777.09
2023-06-14T20:21:19.425Z,98777.66
2023-06-14T20:23:47.195Z,98771.44
2023-06-14T20:26:14.994Z,98765.88
2023-06-14T20:28:42.490Z,98769.59
2023-06-14T20:31:11.628Z,98785.72
2023-06-14T20:33:39.399Z,98782.41
2023-06-14T20:36:07.220Z,98769.81
2023-06-14T20:38:34.443Z,98767.91
2023-06-14T20:41:01.820Z,98764.81
2023-06-14T20:43:29.710Z,98775.78
2023-06-14T20:45:57.987Z,98766.28
2023-06-14T20:48:26.422Z,98764.00
2023-06-14T20:50:54.015Z,98772.03
2023-06-14T20:53:21.891Z,98772.25
2023-06-14T20:55:49.319Z,98762.53
2023-06-14T20:58:18.140Z,98769.97
2023-06-14T21:00:45.711Z,98759.44
2023-06-14T21:03:13.669Z,98770.59
2023-06-14T21:05:41.741Z,98773.09
2023-06-14T21:08:09.012Z,98770.59
2023-06-14T21:10:37.141Z,98764.59
2023-06-14T21:13:04.649Z,98773.50
2023-06-14T21:15:35.499Z,98771.00
2023-06-14T21:18:03.287Z,98769.16
2023-06-14T21:20:30.768Z,98770.19
2023-06-14T21:22:58.252Z,98773.09
2023-06-14T21:25:25.584Z,98774.16
2023-06-14T21:27:53.005Z,98777.88
2023-06-14T21:30:31.584Z,98768.53
2023-06-14T21:32:58.860Z,98778.47
2023-06-14T21:35:26.411Z,98778.28
2023-06-14T21:37:54.902Z,98783.03
2023-06-14T21:40:22.090Z,98771.25
2023-06-14T21:42:49.565Z,98790.09
2023-06-14T21:45:17.376Z,98785.56
2023-06-14T21:47:46.629Z,98781.38
2023-06-14T21:50:14.449Z,98782.06
2023-06-14T21:52:41.788Z,98784.72
2023-06-14T21:55:09.635Z,98782.25
2023-06-14T21:57:37.210Z,98774.78
2023-06-14T22:00:05.690Z,98781.84
2023-06-14T22:02:33.911Z,98781.81
2023-06-14T22:05:01.422Z,98767.53
2023-06-14T22:07:32.092Z,98777.69
2023-06-14T22:10:00.448Z,98768.94
2023-06-14T22:12:29.412Z,98777.00
2023-06-14T22:14:57.009Z,98761.47
2023-06-14T22:17:25.134Z,98774.44
2023-06-14T22:19:52.864Z,98778.22
2023-06-14T22:22:30.320Z,98778.41
2023-06-14T22:24:57.993Z,98782.25
2023-06-14T22:27:27.236Z,98775.78
2023-06-14T22:29:58.146Z,98767.13
2023-06-14T22:32:29.773Z,98775.84
2023-06-14T22:34:57.781Z,98770.69
2023-06-14T22:37:36.732Z,98782.97
2023-06-14T22:40:12.184Z,98782.88
2023-06-14T22:42:48.896Z,98792.59
2023-06-14T22:45:28.680Z,98784.13
2023-06-14T22:47:57.598Z,98778.66
2023-06-14T22:50:25.385Z,98771.69
2023-06-14T22:52:53.582Z,98788.13
2023-06-14T22:55:21.330Z,98783.69
2023-06-14T22:57:49.981Z,98775.34
2023-06-14T23:00:18.462Z,98775.38
2023-06-14T23:02:46.941Z,98769.63
2023-06-14T23:05:15.070Z,98778.22
2023-06-14T23:07:43.550Z,98777.31
2023-06-14T23:10:11.693Z,98765.03
2023-06-14T23:12:41.776Z,98773.19
2023-06-14T23:15:10.200Z,98760.41
2023-06-14T23:17:42.910Z,98757.34
2023-06-14T23:20:10.976Z,98754.34
2023-06-14T23:22:42.333Z,98765.59
2023-06-14T23:25:10.710Z,98754.84
2023-06-14T23:27:38.558Z,98753.06
2023-06-14T23:30:06.825Z,98754.41
2023-06-14T23:32:35.031Z,98759.72
2023-06-14T23:35:03.662Z,98757.88
2023-06-14T23:37:31.696Z,98755.13
2023-06-14T23:40:01.615Z,98761.88
2023-06-14T23:42:32.530Z,98753.69
2023-06-14T23:45:03.595Z,98757.72
2023-06-14T23:47:34.433Z,98760.25
2023-06-14T23:50:01.952Z,98740.41
2023-06-14T23:52:30.877Z,98750.38
2023-06-14T23:55:02.956Z,98747.53
2023-06-14T23:57:31.950Z,98751.06
2023-06-14T23:59:59.849Z,98743.22
